createdAt,value
2019-04-20T00:01:05.377Z,46.92
2019-04-20T00:03:09.747Z,59.80
2019-04-20T00:05:13.404Z,77.82
2019-04-20T00:07:21.905Z,50.12
2019-04-20T00:09:26.520Z,86.22
2019-04-20T00:11:41.281Z,90.42
2019-04-20T00:13:45.350Z,102.67
2019-04-20T00:15:40.668Z,149.23
2019-04-20T00:17:50.826Z,95.17
2019-04-20T00:19:53.810Z,67.50
2019-04-20T00:22:04.496Z,100.80
2019-04-20T00:24:13.615Z,82.80
2019-04-20T00:26:24.893Z,57.88
2019-04-20T00:28:40.732Z,44.67
2019-04-20T00:30:46.966Z,45.40
2019-04-20T00:32:48.997Z,42.38
2019-04-20T00:34:42.408Z,42.90
2019-04-20T00:36:45.369Z,78.67
2019-04-20T00:38:53.649Z,43.08
2019-04-20T00:41:01.015Z,62.98
2019-04-20T00:43:01.479Z,46.98
2019-04-20T00:45:12.003Z,39.03
2019-04-20T00:47:29.592Z,38.48
2019-04-20T00:49:30.479Z,38.73
2019-04-20T00:51:39.235Z,52.50
2019-04-20T00:53:34.754Z,40.30
2019-04-20T00:55:34.270Z,38.28
2019-04-20T00:57:46.626Z,40.33
2019-04-20T01:00:04.700Z,48.45
2019-04-20T01:02:10.602Z,42.27
2019-04-20T01:04:14.841Z,45.00
2019-04-20T01:06:24.992Z,35.98
2019-04-20T01:08:12.820Z,36.63
2019-04-20T01:10:21.623Z,33.30
2019-04-20T01:12:28.562Z,40.33
2019-04-20T01:14:39.755Z,35.30
2019-04-20T01:16:45.198Z,40.58
2019-04-20T01:18:43.741Z,39.03
2019-04-20T01:20:47.649Z,37.35
2019-04-20T01:22:59.369Z,39.42
2019-04-20T01:25:06.889Z,32.03
2019-04-20T01:27:05.366Z,41.30
2019-04-20T01:29:20.210Z,51.40
2019-04-20T01:31:24.125Z,50.33
2019-04-20T01:33:34.327Z,49.63
2019-04-20T01:35:39.511Z,62.13
2019-04-20T01:37:40.880Z,52.78
2019-04-20T01:39:41.875Z,71.70
2019-04-20T01:41:41.371Z,67.25
2019-04-20T01:43:46.163Z,63.75
2019-04-20T01:45:58.683Z,84.83
2019-04-20T01:47:59.478Z,80.32
2019-04-20T01:50:08.396Z,69.50
2019-04-20T01:52:17.317Z,210.20
2019-04-20T01:54:29.739Z,127.75
2019-04-20T01:56:31.606Z,63.28
2019-04-20T01:58:58.526Z,57.35
2019-04-20T02:00:57.600Z,79.07
2019-04-20T02:03:08.193Z,70.35
2019-04-20T02:05:17.118Z,78.78
2019-04-20T02:07:25.473Z,61.77
2019-04-20T02:09:27.354Z,64.50
2019-04-20T02:11:34.585Z,60.70
2019-04-20T02:13:42.549Z,55.75
2019-04-20T02:15:45.121Z,48.42
2019-04-20T02:17:59.731Z,50.55
2019-04-20T02:20:10.717Z,41.98
2019-04-20T02:22:09.743Z,56.35
2019-04-20T02:24:04.671Z,82.12
2019-04-20T02:26:07.135Z,52.83
2019-04-20T02:28:27.415Z,51.05
2019-04-20T02:30:57.602Z,44.85
2019-04-20T02:33:03.646Z,42.03
2019-04-20T02:35:22.018Z,44.00
2019-04-20T02:37:26.413Z,43.75
2019-04-20T02:39:41.357Z,47.55
2019-04-20T02:45:49.085Z,41.28
2019-04-20T02:47:53.438Z,50.95
2019-04-20T02:49:56.649Z,40.65
2019-04-20T02:52:09.824Z,65.65
2019-04-20T02:54:15.009Z,44.05
2019-04-20T02:56:26.551Z,47.38
2019-04-20T02:58:23.663Z,44.13
2019-04-20T03:00:25.427Z,43.33
2019-04-20T03:02:18.509Z,42.23
2019-04-20T03:04:17.551Z,48.83
2019-04-20T03:06:22.792Z,50.25
2019-04-20T03:08:37.750Z,59.05
2019-04-20T03:10:54.518Z,51.95
2019-04-20T03:12:50.844Z,44.65
2019-04-20T03:14:47.819Z,44.55
2019-04-20T03:17:08.113Z,54.10
2019-04-20T03:19:06.796Z,44.05
2019-04-20T03:21:12.813Z,48.98
2019-04-20T03:25:45.261Z,50.70
2019-04-20T03:27:59.632Z,58.55
2019-04-20T03:30:05.857Z,65.67
2019-04-20T03:35:01.208Z,44.80
2019-04-20T03:36:43.007Z,55.03
2019-04-20T03:38:38.387Z,41.73
2019-04-20T03:40:41.345Z,44.88
2019-04-20T03:42:30.878Z,44.85
2019-04-20T03:44:36.247Z,42.58
2019-04-20T03:46:47.885Z,41.58
2019-04-20T03:48:58.617Z,46.28
2019-04-20T03:51:15.225Z,48.52
2019-04-20T03:53:19.104Z,50.90
2019-04-20T03:55:26.268Z,41.20
2019-04-20T03:57:42.194Z,37.35
2019-04-20T03:59:56.268Z,44.63
2019-04-20T04:02:21.875Z,67.22
2019-04-20T04:04:16.812Z,66.67
2019-04-20T04:06:12.409Z,53.42
2019-04-20T04:08:19.425Z,44.80
2019-04-20T04:10:24.951Z,38.42
2019-04-20T04:12:55.130Z,40.58
2019-04-20T04:14:59.845Z,41.75
2019-04-20T04:17:04.624Z,36.15
2019-04-20T04:19:19.264Z,45.40
2019-04-20T04:21:21.987Z,66.20
2019-04-20T04:23:38.324Z,55.30
2019-04-20T04:25:42.750Z,44.93
2019-04-20T04:27:49.303Z,50.40
2019-04-20T04:29:58.236Z,44.40
2019-04-20T04:32:12.268Z,177.97
2019-04-20T04:34:25.022Z,57.50
2019-04-20T04:36:12.997Z,42.40
2019-04-20T04:38:24.123Z,50.60
2019-04-20T04:40:31.676Z,70.28
2019-04-20T04:42:34.274Z,60.20
2019-04-20T04:44:30.548Z,51.83
2019-04-20T04:46:24.783Z,63.00
2019-04-20T04:48:35.080Z,101.27
2019-04-20T04:50:44.629Z,97.30
2019-04-20T04:52:52.186Z,45.85
2019-04-20T04:54:53.650Z,55.83
2019-04-20T04:56:50.553Z,44.98
2019-04-20T04:58:54.205Z,61.40
2019-04-20T05:01:05.536Z,65.90
2019-04-20T05:03:23.322Z,46.30
2019-04-20T05:05:47.256Z,81.25
2019-04-20T05:07:46.455Z,114.55
2019-04-20T05:09:37.993Z,138.52
2019-04-20T05:11:42.741Z,81.65
2019-04-20T05:13:55.697Z,76.65
2019-04-20T05:16:05.197Z,93.35
2019-04-20T05:18:18.245Z,75.22
2019-04-20T05:20:23.239Z,63.35
2019-04-20T05:22:35.163Z,53.15
2019-04-20T05:24:33.582Z,48.50
2019-04-20T05:26:53.344Z,44.50
2019-04-20T05:28:48.357Z,41.35
2019-04-20T05:32:56.774Z,41.63
2019-04-20T05:35:14.685Z,39.18
2019-04-20T05:37:29.639Z,40.48
2019-04-20T05:41:34.432Z,34.78
2019-04-20T05:43:47.271Z,34.27
2019-04-20T05:45:49.940Z,31.60
2019-04-20T05:48:05.147Z,36.17
2019-04-20T05:50:03.600Z,38.08
2019-04-20T05:52:31.319Z,38.92
2019-04-20T05:54:19.234Z,41.60
2019-04-20T05:56:31.669Z,41.85
2019-04-20T05:58:34.413Z,39.83
2019-04-20T06:00:41.081Z,37.63
2019-04-20T06:02:46.944Z,38.35
2019-04-20T06:05:00.015Z,43.08
2019-04-20T06:06:56.716Z,43.23
2019-04-20T06:09:05.674Z,48.80
2019-04-20T06:11:09.412Z,44.73
2019-04-20T06:13:12.456Z,45.10
2019-04-20T06:15:42.057Z,44.55
2019-04-20T06:17:59.738Z,51.42
2019-04-20T06:20:12.624Z,60.45
2019-04-20T06:22:21.747Z,38.45
2019-04-20T06:24:29.304Z,40.35
2019-04-20T06:28:32.768Z,42.67
2019-04-20T06:30:34.858Z,43.80
2019-04-20T06:33:34.204Z,44.35
2019-04-20T06:35:45.490Z,45.35
2019-04-20T06:37:38.515Z,54.53
2019-04-20T06:39:42.634Z,45.95
2019-04-20T06:43:57.912Z,43.33
2019-04-20T06:46:04.437Z,52.45
2019-04-20T06:48:11.117Z,40.50
2019-04-20T06:50:07.200Z,41.80
2019-04-20T06:52:27.595Z,42.45
2019-04-20T06:54:29.600Z,39.53
2019-04-20T06:56:41.729Z,40.55
2019-04-20T06:58:50.924Z,45.92
2019-04-20T07:00:58.870Z,48.68
2019-04-20T07:02:59.020Z,40.67
2019-04-20T07:05:08.559Z,37.28
2019-04-20T07:07:14.364Z,42.85
2019-04-20T07:09:28.655Z,39.13
2019-04-20T07:11:23.956Z,41.63
2019-04-20T07:13:22.128Z,37.83
2019-04-20T07:15:30.262Z,49.25
2019-04-20T07:19:51.742Z,43.90
2019-04-20T07:22:26.349Z,41.45
2019-04-20T07:24:35.081Z,46.48
2019-04-20T07:26:39.977Z,40.88
2019-04-20T07:28:40.830Z,45.17
2019-04-20T07:30:48.575Z,38.48
2019-04-20T07:32:56.461Z,41.30
2019-04-20T07:34:58.590Z,43.13
2019-04-20T07:37:28.172Z,38.40
2019-04-20T07:39:07.577Z,38.90
2019-04-20T07:41:20.523Z,29.45
2019-04-20T07:43:16.405Z,38.67
2019-04-20T07:47:35.765Z,40.70
2019-04-20T07:49:36.990Z,35.63
2019-04-20T07:51:27.816Z,32.45
2019-04-20T07:53:36.266Z,34.03
2019-04-20T07:55:54.074Z,39.65
2019-04-20T07:57:52.845Z,35.25
2019-04-20T07:59:58.899Z,29.72
2019-04-20T08:02:17.244Z,30.88
2019-04-20T08:06:16.482Z,22.98
2019-04-20T08:08:30.469Z,26.93
2019-04-20T08:10:35.327Z,22.05
2019-04-20T08:12:55.922Z,20.35
2019-04-20T08:15:04.753Z,24.65
2019-04-20T08:17:14.326Z,23.32
2019-04-20T08:19:05.235Z,21.97
2019-04-20T08:21:16.665Z,19.00
2019-04-20T08:23:17.211Z,22.32
2019-04-20T08:25:16.674Z,26.60
2019-04-20T08:27:13.142Z,14.40
2019-04-20T08:29:36.718Z,18.60
2019-04-20T08:31:40.663Z,19.52
2019-04-20T08:34:07.600Z,18.12
2019-04-20T08:36:04.356Z,19.48
2019-04-20T08:38:48.519Z,32.03
2019-04-20T08:40:13.244Z,21.37
2019-04-20T08:42:18.651Z,22.42
2019-04-20T08:46:34.446Z,17.95
2019-04-20T08:48:40.860Z,21.55
2019-04-20T08:50:45.197Z,15.10
2019-04-20T08:55:00.392Z,16.00
2019-04-20T08:56:47.065Z,15.28
2019-04-20T08:58:48.336Z,12.33
2019-04-20T09:00:58.775Z,20.45
2019-04-20T09:03:07.478Z,15.80
2019-04-20T09:05:23.979Z,10.75
2019-04-20T09:07:20.195Z,9.88
2019-04-20T09:09:56.442Z,16.82
2019-04-20T09:11:49.417Z,11.05
2019-04-20T09:13:39.601Z,16.95
2019-04-20T09:15:38.318Z,14.35
2019-04-20T09:18:00.890Z,12.90
2019-04-20T09:20:09.560Z,13.78
2019-04-20T09:22:34.010Z,14.38
2019-04-20T09:24:50.959Z,11.55
2019-04-20T09:26:54.291Z,12.25
2019-04-20T09:29:07.922Z,14.50
2019-04-20T09:31:13.232Z,9.40
2019-04-20T09:33:43.143Z,11.50
2019-04-20T09:35:48.634Z,9.28
2019-04-20T09:38:01.695Z,14.30
2019-04-20T09:40:25.524Z,9.60
2019-04-20T09:42:14.251Z,9.13
2019-04-20T09:44:17.877Z,11.12
2019-04-20T09:46:22.266Z,12.70
2019-04-20T09:48:38.391Z,15.32
2019-04-20T09:50:50.575Z,11.93
2019-04-20T09:52:51.599Z,10.53
2019-04-20T09:54:59.267Z,12.28
2019-04-20T09:57:09.356Z,9.00
2019-04-20T09:59:12.320Z,10.88
2019-04-20T10:01:14.582Z,7.05
2019-04-20T10:03:06.641Z,10.32
2019-04-20T10:05:11.511Z,8.20
2019-04-20T10:07:19.547Z,9.73
2019-04-20T10:09:29.482Z,9.60
2019-04-20T10:11:27.528Z,8.23
2019-04-20T10:13:34.249Z,11.22
2019-04-20T10:15:38.024Z,9.83
2019-04-20T10:17:41.852Z,13.95
2019-04-20T10:19:46.576Z,13.15
2019-04-20T10:21:50.865Z,11.55
2019-04-20T10:23:54.646Z,12.33
2019-04-20T10:25:58.870Z,24.32
2019-04-20T10:28:03.364Z,13.45
2019-04-20T10:30:08.229Z,9.85
2019-04-20T10:32:15.582Z,14.47
2019-04-20T10:34:20.784Z,9.05
2019-04-20T10:36:43.760Z,14.40
2019-04-20T10:38:48.528Z,8.53
2019-04-20T10:41:03.512Z,23.62
2019-04-20T10:42:59.820Z,14.35
2019-04-20T10:45:04.213Z,6.85
2019-04-20T10:47:09.152Z,7.37
2019-04-20T10:49:13.392Z,8.20
2019-04-20T10:51:19.744Z,10.90
2019-04-20T10:53:23.779Z,9.90
2019-04-20T10:55:27.569Z,15.60
2019-04-20T10:57:31.491Z,8.60
2019-04-20T10:59:35.243Z,7.25
2019-04-20T11:01:40.083Z,48.58
2019-04-20T11:03:44.873Z,29.87
2019-04-20T11:05:49.045Z,26.02
2019-04-20T11:07:53.112Z,7.60
2019-04-20T11:10:07.968Z,16.40
2019-04-20T11:12:02.322Z,12.03
2019-04-20T11:14:15.571Z,18.77
2019-04-20T11:16:12.666Z,8.10
2019-04-20T11:18:17.604Z,16.17
2019-04-20T11:20:21.822Z,10.88
2019-04-20T11:22:26.270Z,11.75
2019-04-20T11:24:30.451Z,11.80
2019-04-20T11:26:37.083Z,16.23
2019-04-20T11:28:40.454Z,19.00
2019-04-20T11:30:45.985Z,21.05
2019-04-20T11:32:51.815Z,11.85
2019-04-20T11:34:56.728Z,11.12
2019-04-20T11:37:01.410Z,16.23
2019-04-20T11:39:09.342Z,15.40
2019-04-20T11:41:19.963Z,23.22
2019-04-20T11:43:19.816Z,7.03
2019-04-20T11:45:24.741Z,11.78
2019-04-20T11:47:29.647Z,11.03
2019-04-20T11:49:33.474Z,14.87
2019-04-20T11:51:37.400Z,7.55
2019-04-20T11:53:42.694Z,9.18
2019-04-20T11:55:46.641Z,15.93
2019-04-20T11:57:51.353Z,15.90
2019-04-20T11:59:55.137Z,13.60
2019-04-20T12:02:21.619Z,17.85
2019-04-20T12:04:34.090Z,17.35
2019-04-20T12:06:26.550Z,17.17
2019-04-20T12:08:31.169Z,18.52
2019-04-20T12:10:37.219Z,11.57
2019-04-20T12:12:46.709Z,19.52
2019-04-20T12:14:48.470Z,7.78
2019-04-20T12:16:53.388Z,8.88
2019-04-20T12:18:57.566Z,6.53
2019-04-20T12:21:03.223Z,12.18
2019-04-20T12:23:10.574Z,9.68
2019-04-20T12:25:14.479Z,7.12
2019-04-20T12:27:18.661Z,5.95
2019-04-20T12:29:23.786Z,6.87
2019-04-20T12:31:29.405Z,8.35
2019-04-20T12:33:34.552Z,7.83
2019-04-20T12:35:40.083Z,11.50
2019-04-20T12:37:47.235Z,10.58
2019-04-20T12:39:51.479Z,10.00
2019-04-20T12:41:58.871Z,5.08
2019-04-20T12:44:01.727Z,10.53
2019-04-20T12:46:05.587Z,10.48
2019-04-20T12:48:09.377Z,4.58
2019-04-20T12:50:14.127Z,6.33
2019-04-20T12:52:18.979Z,8.18
2019-04-20T12:54:29.279Z,5.00
2019-04-20T12:56:30.678Z,6.85
2019-04-20T12:58:34.660Z,5.15
2019-04-20T13:00:45.896Z,6.55
2019-04-20T13:02:49.949Z,3.83
2019-04-20T13:04:55.266Z,9.05
2019-04-20T13:06:59.656Z,7.40
2019-04-20T13:09:05.713Z,9.05
2019-04-20T13:11:11.166Z,9.50
2019-04-20T13:13:26.186Z,6.78
2019-04-20T13:15:38.296Z,6.12
2019-04-20T13:17:42.259Z,12.43
2019-04-20T13:19:47.103Z,8.85
2019-04-20T13:21:51.097Z,8.38
2019-04-20T13:23:56.246Z,10.18
2019-04-20T13:26:02.237Z,41.20
2019-04-20T13:28:07.321Z,9.90
2019-04-20T13:30:11.386Z,8.33
2019-04-20T13:32:15.965Z,6.85
2019-04-20T13:34:20.226Z,12.82
2019-04-20T13:36:24.506Z,9.60
2019-04-20T13:38:28.207Z,10.25
2019-04-20T13:40:33.181Z,5.67
2019-04-20T13:42:38.226Z,8.98
2019-04-20T13:44:43.229Z,11.93
2019-04-20T13:46:47.174Z,11.90
2019-04-20T13:48:53.092Z,12.43
2019-04-20T13:50:58.164Z,6.08
2019-04-20T13:53:03.339Z,7.35
2019-04-20T13:55:08.744Z,27.55
2019-04-20T13:57:23.927Z,4.87
2019-04-20T13:59:33.894Z,5.72
2019-04-20T14:01:46.677Z,5.60
2019-04-20T14:04:05.269Z,7.17
2019-04-20T14:06:09.281Z,5.95
2019-04-20T14:08:17.555Z,8.38
2019-04-20T14:10:23.670Z,8.00
2019-04-20T14:12:32.371Z,8.53
2019-04-20T14:14:33.185Z,6.83
2019-04-20T14:16:39.016Z,6.33
2019-04-20T14:18:43.237Z,4.45
2019-04-20T14:20:47.951Z,7.47
2019-04-20T14:22:52.503Z,6.67
2019-04-20T14:24:57.316Z,4.85
2019-04-20T14:27:01.481Z,8.33
2019-04-20T14:29:05.502Z,6.80
2019-04-20T14:31:09.877Z,10.30
2019-04-20T14:33:14.770Z,9.03
2019-04-20T14:35:19.149Z,6.08
2019-04-20T14:37:25.005Z,13.38
2019-04-20T14:39:30.264Z,17.35
2019-04-20T14:41:34.394Z,9.45
2019-04-20T14:43:39.844Z,16.90
2019-04-20T14:45:44.676Z,8.85
2019-04-20T14:47:49.968Z,12.45
2019-04-20T14:49:55.160Z,8.53
2019-04-20T14:52:01.132Z,6.47
2019-04-20T14:54:05.506Z,4.95
2019-04-20T14:56:09.666Z,11.03
2019-04-20T14:58:31.576Z,10.08
2019-04-20T15:00:54.869Z,6.70
2019-04-20T15:03:01.842Z,7.20
2019-04-20T15:05:07.405Z,8.18
2019-04-20T15:07:13.009Z,9.65
2019-04-20T15:09:16.971Z,4.85
2019-04-20T15:11:21.046Z,3.00
2019-04-20T15:13:25.146Z,11.33
2019-04-20T15:15:28.956Z,9.63
2019-04-20T15:17:37.504Z,6.67
2019-04-20T15:19:45.539Z,8.68
2019-04-20T15:21:57.729Z,5.47
2019-04-20T15:24:01.760Z,9.73
2019-04-20T15:26:06.591Z,9.10
2019-04-20T15:28:10.521Z,7.30
2019-04-20T15:30:16.230Z,4.92
2019-04-20T15:32:20.818Z,15.13
2019-04-20T15:34:24.785Z,5.50
2019-04-20T15:36:28.975Z,68.55
2019-04-20T15:38:33.346Z,8.43
2019-04-20T15:40:37.269Z,15.90
2019-04-20T15:42:53.780Z,18.17
2019-04-20T15:44:47.263Z,14.35
2019-04-20T15:46:51.352Z,11.03
2019-04-20T15:48:55.833Z,17.30
2019-04-20T15:50:59.746Z,10.82
2019-04-20T15:53:04.112Z,10.70
2019-04-20T15:55:17.014Z,8.30
2019-04-20T15:57:18.351Z,20.15
2019-04-20T15:59:20.086Z,7.33
2019-04-20T16:01:26.083Z,12.43
2019-04-20T16:03:33.015Z,19.65
2019-04-20T16:07:56.289Z,20.37
2019-04-20T16:09:56.896Z,9.63
2019-04-20T16:12:02.589Z,8.03
2019-04-20T16:14:07.269Z,6.80
2019-04-20T16:16:12.107Z,14.70
2019-04-20T16:18:16.913Z,9.15
2019-04-20T16:20:23.539Z,12.07
2019-04-20T16:22:28.925Z,12.82
2019-04-20T16:24:44.840Z,11.10
2019-04-20T16:26:51.588Z,34.92
2019-04-20T16:28:55.790Z,22.30
2019-04-20T16:31:01.494Z,27.10
2019-04-20T16:33:06.305Z,12.73
2019-04-20T16:35:10.935Z,12.82
2019-04-20T16:37:16.917Z,13.00
2019-04-20T16:39:21.054Z,32.15
2019-04-20T16:41:26.314Z,24.65
2019-04-20T16:43:35.812Z,37.73
2019-04-20T16:45:37.153Z,33.30
2019-04-20T16:47:42.159Z,162.68
2019-04-20T16:49:46.730Z,154.40
2019-04-20T16:51:50.610Z,83.20
2019-04-20T16:53:56.010Z,82.70
2019-04-20T16:56:01.204Z,44.80
2019-04-20T16:58:05.960Z,35.63
2019-04-20T17:00:11.670Z,50.65
2019-04-20T17:02:17.448Z,75.22
2019-04-20T17:04:24.030Z,71.42
2019-04-20T17:06:26.814Z,100.15
2019-04-20T17:08:31.169Z,91.53
2019-04-20T17:10:35.095Z,82.40
2019-04-20T17:12:39.943Z,25.20
2019-04-20T17:14:43.745Z,25.25
2019-04-20T17:16:47.404Z,50.83
2019-04-20T17:18:51.967Z,200.75
2019-04-20T17:24:35.805Z,297.77
2019-04-20T17:26:59.092Z,318.75
2019-04-20T17:29:15.920Z,824.62
2019-04-20T17:31:25.225Z,559.87
2019-04-20T17:33:32.555Z,410.93
2019-04-20T17:35:47.291Z,224.22
2019-04-20T17:37:45.099Z,142.47
2019-04-20T17:44:12.583Z,27.02
2019-04-20T17:46:06.829Z,53.00
2019-04-20T17:48:14.668Z,47.10
2019-04-20T17:53:57.683Z,27.65
2019-04-20T17:55:57.369Z,73.78
2019-04-20T17:58:01.739Z,84.03
2019-04-20T18:04:24.494Z,41.55
2019-04-20T18:06:21.259Z,25.32
2019-04-20T18:08:29.915Z,14.10
2019-04-20T18:14:31.454Z,18.12
2019-04-20T18:16:46.831Z,25.27
2019-04-20T18:18:59.536Z,19.20
2019-04-20T18:20:56.912Z,16.25
2019-04-20T18:23:02.539Z,16.55
2019-04-20T18:25:32.520Z,12.75
2019-04-20T18:27:37.380Z,17.82
2019-04-20T18:29:37.379Z,19.57
2019-04-20T18:31:41.835Z,19.12
2019-04-20T18:33:46.533Z,14.83
2019-04-20T18:35:50.796Z,13.95
2019-04-20T18:38:00.819Z,12.60
2019-04-20T18:40:07.341Z,12.82
2019-04-20T18:42:16.487Z,17.85
2019-04-20T18:44:14.812Z,15.13
2019-04-20T18:46:44.023Z,33.95
2019-04-20T18:48:44.682Z,22.67
2019-04-20T18:50:35.359Z,31.77
2019-04-20T18:52:35.832Z,21.35
2019-04-20T18:54:44.131Z,20.48
2019-04-20T18:56:56.796Z,26.33
2019-04-20T18:59:01.128Z,18.65
2019-04-20T19:01:05.360Z,16.50
2019-04-20T19:03:18.319Z,20.00
2019-04-20T19:05:15.868Z,30.12
2019-04-20T19:07:19.971Z,55.98
2019-04-20T19:09:28.116Z,64.75
2019-04-20T19:11:30.808Z,75.35
2019-04-20T19:13:43.455Z,75.80
2019-04-20T19:18:06.592Z,44.83
2019-04-20T19:20:20.206Z,43.17
2019-04-20T19:22:24.107Z,36.83
2019-04-20T19:24:32.753Z,40.80
2019-04-20T19:26:34.344Z,30.70
2019-04-20T19:28:45.156Z,31.20
2019-04-20T19:30:50.207Z,35.98
2019-04-20T19:33:09.112Z,28.90
2019-04-20T19:35:04.345Z,27.22
2019-04-20T19:37:14.058Z,27.62
2019-04-20T19:39:23.502Z,37.58
2019-04-20T19:41:25.387Z,37.28
2019-04-20T19:43:25.364Z,42.03
2019-04-20T19:45:46.616Z,51.20
2019-04-20T19:47:47.987Z,59.70
2019-04-20T19:49:47.256Z,80.62
2019-04-20T19:52:14.903Z,76.70
2019-04-20T19:54:09.498Z,109.05
2019-04-20T19:56:05.356Z,102.70
2019-04-20T19:58:14.114Z,165.50
2019-04-20T20:00:07.795Z,179.18
2019-04-20T20:02:11.862Z,199.70
2019-04-20T20:04:15.746Z,184.25
2019-04-20T20:06:29.289Z,181.37
2019-04-20T20:08:29.560Z,230.35
2019-04-20T20:10:37.248Z,272.63
2019-04-20T20:12:41.236Z,239.82
2019-04-20T20:14:47.535Z,217.60
2019-04-20T20:17:14.198Z,192.62
2019-04-20T20:19:05.765Z,216.80
2019-04-20T20:21:16.181Z,315.12
2019-04-20T20:23:07.894Z,185.80
2019-04-20T20:25:12.804Z,122.80
2019-04-20T20:27:25.682Z,177.87
2019-04-20T20:29:33.521Z,184.35
2019-04-20T20:31:47.029Z,103.67
2019-04-20T20:33:53.373Z,337.40
2019-04-20T20:35:49.320Z,605.63
2019-04-20T20:37:53.458Z,387.17
2019-04-20T20:39:59.326Z,224.70
2019-04-20T20:42:14.316Z,211.05
2019-04-20T20:44:14.022Z,267.40
2019-04-20T20:46:20.057Z,332.00
2019-04-20T20:48:29.690Z,312.20
2019-04-20T20:50:43.182Z,259.10
2019-04-20T20:52:42.925Z,184.80
2019-04-20T20:54:46.033Z,187.18
2019-04-20T20:56:52.707Z,209.55
2019-04-20T20:58:59.497Z,236.52
2019-04-20T21:01:03.642Z,288.45
2019-04-20T21:03:05.516Z,213.70
2019-04-20T21:05:06.999Z,227.68
2019-04-20T21:07:10.990Z,135.80
2019-04-20T21:09:16.539Z,187.70
2019-04-20T21:11:27.109Z,174.23
2019-04-20T21:13:34.484Z,217.60
2019-04-20T21:15:33.253Z,154.87
2019-04-20T21:17:55.912Z,119.40
2019-04-20T21:19:58.366Z,89.07
2019-04-20T21:21:55.910Z,109.95
2019-04-20T21:24:06.631Z,82.05
2019-04-20T21:26:12.767Z,186.03
2019-04-20T21:28:13.147Z,220.45
2019-04-20T21:30:24.016Z,176.72
2019-04-20T21:32:23.724Z,181.57
2019-04-20T21:34:29.012Z,167.60
2019-04-20T21:36:33.521Z,173.68
2019-04-20T21:38:41.457Z,132.95
2019-04-20T21:40:47.587Z,65.20
2019-04-20T21:42:55.582Z,47.67
2019-04-20T21:45:05.645Z,42.03
2019-04-20T21:47:01.979Z,44.67
2019-04-20T21:49:23.861Z,37.83
2019-04-20T21:51:27.506Z,71.80
2019-04-20T21:53:23.114Z,168.80
2019-04-20T21:55:23.767Z,116.95
2019-04-20T21:57:31.312Z,106.12
2019-04-20T21:59:40.923Z,66.12
2019-04-20T22:01:46.360Z,95.72
2019-04-20T22:03:44.864Z,75.78
2019-04-20T22:05:48.595Z,53.02
2019-04-20T22:07:52.598Z,50.33
2019-04-20T22:09:57.146Z,69.85
2019-04-20T22:12:03.436Z,68.78
2019-04-20T22:14:14.653Z,53.75
2019-04-20T22:16:15.156Z,72.50
2019-04-20T22:18:23.125Z,119.85
2019-04-20T22:20:33.454Z,73.97
2019-04-20T22:22:50.932Z,88.45
2019-04-20T22:24:54.876Z,99.10
2019-04-20T22:26:54.927Z,106.43
2019-04-20T22:28:47.948Z,115.57
2019-04-20T22:30:52.117Z,150.97
2019-04-20T22:32:59.544Z,92.65
2019-04-20T22:35:08.811Z,58.83
2019-04-20T22:37:17.830Z,115.90
2019-04-20T22:39:33.649Z,86.97
2019-04-20T22:41:30.317Z,116.03
2019-04-20T22:43:38.229Z,83.85
2019-04-20T22:45:46.619Z,87.90
2019-04-20T22:47:45.939Z,89.15
2019-04-20T22:50:07.932Z,89.50
2019-04-20T22:52:04.073Z,69.00
2019-04-20T22:54:17.292Z,64.40
2019-04-20T22:56:24.341Z,67.55
2019-04-20T22:58:27.665Z,69.40
2019-04-20T23:00:31.063Z,66.22
2019-04-20T23:02:26.492Z,87.60
2019-04-20T23:04:30.857Z,99.62
2019-04-20T23:06:40.097Z,117.10
2019-04-20T23:08:40.587Z,121.37
2019-04-20T23:10:46.820Z,122.15
2019-04-20T23:12:54.480Z,116.57
2019-04-20T23:14:56.442Z,118.37
2019-04-20T23:17:00.374Z,61.48
2019-04-20T23:19:04.415Z,58.00
2019-04-20T23:21:11.990Z,86.08
2019-04-20T23:23:18.165Z,168.37
2019-04-20T23:25:20.845Z,133.40
2019-04-20T23:27:29.351Z,90.75
2019-04-20T23:29:34.580Z,69.95
2019-04-20T23:31:38.943Z,63.90
2019-04-20T23:33:41.026Z,54.38
2019-04-20T23:35:51.926Z,48.63
2019-04-20T23:37:50.774Z,51.08
2019-04-20T23:39:56.178Z,56.95
2019-04-20T23:42:03.918Z,67.47
2019-04-20T23:44:15.923Z,59.30
2019-04-20T23:46:27.533Z,58.55
2019-04-20T23:48:46.500Z,63.78
2019-04-20T23:51:08.462Z,56.50
2019-04-20T23:53:14.125Z,46.33
2019-04-20T23:55:06.288Z,59.05
2019-04-20T23:57:08.111Z,75.72
2019-04-20T23:59:12.818Z,114.22
